createdAt,value
2023-02-07T00:01:23.045Z,81.80
2023-02-07T00:04:26.240Z,82.15
2023-02-07T00:07:29.273Z,82.12
2023-02-07T00:10:32.477Z,82.39
2023-02-07T00:13:36.283Z,82.19
2023-02-07T00:16:43.429Z,82.30
2023-02-07T00:19:46.210Z,82.61
2023-02-07T00:22:49.296Z,82.62
2023-02-07T00:25:52.003Z,81.98
2023-02-07T00:28:57.490Z,81.51
2023-02-07T00:32:04.111Z,80.55
2023-02-07T00:35:10.415Z,81.30
2023-02-07T00:38:13.099Z,81.53
2023-02-07T00:41:20.141Z,80.24
2023-02-07T00:44:22.981Z,79.61
2023-02-07T00:47:27.208Z,79.55
2023-02-07T00:50:39.258Z,79.78
2023-02-07T00:53:44.298Z,79.63
2023-02-07T00:56:47.046Z,78.29
2023-02-07T00:59:49.799Z,79.21
2023-02-07T01:02:53.818Z,79.57
2023-02-07T01:05:59.748Z,77.46
2023-02-07T01:09:05.355Z,76.48
2023-02-07T01:12:15.849Z,75.67
2023-02-07T01:15:18.972Z,75.11
2023-02-07T01:18:23.030Z,75.54
2023-02-07T01:21:27.705Z,75.11
2023-02-07T01:24:31.005Z,71.33
2023-02-07T01:27:34.208Z,73.09
2023-02-07T01:30:39.396Z,74.29
2023-02-07T01:33:43.515Z,72.97
2023-02-07T01:36:46.429Z,72.91
2023-02-07T01:39:50.761Z,73.84
2023-02-07T01:42:53.557Z,72.66
2023-02-07T01:45:56.276Z,73.65
2023-02-07T01:49:13.176Z,74.41
2023-02-07T01:52:19.356Z,74.43
2023-02-07T01:55:27.329Z,74.69
2023-02-07T01:58:30.578Z,74.93
2023-02-07T02:01:37.099Z,75.08
2023-02-07T02:04:44.053Z,72.38
2023-02-07T02:07:46.718Z,73.37
2023-02-07T02:11:03.685Z,73.23
2023-02-07T02:14:14.817Z,73.62
2023-02-07T02:17:29.318Z,73.75
2023-02-07T02:21:19.773Z,74.03
2023-02-07T02:24:55.349Z,74.18
2023-02-07T02:28:35.164Z,73.31
2023-02-07T02:32:04.731Z,72.75
2023-02-07T02:35:17.925Z,73.45
2023-02-07T02:38:27.926Z,74.50
2023-02-07T02:41:38.197Z,74.90
2023-02-07T02:44:49.049Z,75.43
2023-02-07T02:47:52.734Z,75.75
2023-02-07T02:50:57.553Z,75.74
2023-02-07T02:54:03.371Z,75.33
2023-02-07T02:57:24.492Z,75.40
2023-02-07T03:00:42.897Z,75.45
2023-02-07T03:04:17.353Z,75.62
2023-02-07T03:07:41.260Z,74.30
2023-02-07T03:10:54.748Z,74.89
2023-02-07T03:14:03.650Z,74.48
2023-02-07T03:17:16.365Z,75.35
2023-02-07T03:20:21.778Z,75.77
2023-02-07T03:23:25.857Z,75.17
2023-02-07T03:26:30.838Z,75.84
2023-02-07T03:29:35.340Z,76.16
2023-02-07T03:32:45.364Z,76.20
2023-02-07T03:35:54.746Z,76.66
2023-02-07T03:38:59.836Z,76.91
2023-02-07T03:42:07.279Z,77.02
2023-02-07T03:45:14.527Z,77.43
2023-02-07T03:48:24.759Z,77.68
2023-02-07T03:51:27.407Z,77.76
2023-02-07T03:54:32.213Z,77.67
2023-02-07T03:57:38.524Z,78.02
2023-02-07T04:00:41.385Z,78.39
2023-02-07T04:03:51.366Z,78.04
2023-02-07T04:06:54.306Z,78.32
2023-02-07T04:09:58.370Z,77.85
2023-02-07T04:13:10.583Z,78.20
2023-02-07T04:16:13.549Z,78.13
2023-02-07T04:19:17.537Z,78.38
2023-02-07T04:22:20.515Z,78.66
2023-02-07T04:25:24.506Z,77.92
2023-02-07T04:28:29.142Z,78.39
2023-02-07T04:31:34.027Z,78.61
2023-02-07T04:34:36.766Z,78.84
2023-02-07T04:37:41.611Z,78.94
2023-02-07T04:40:45.658Z,78.30
2023-02-07T04:43:50.676Z,78.80
2023-02-07T04:46:53.417Z,78.37
2023-02-07T04:49:56.087Z,78.67
2023-02-07T04:52:58.752Z,78.46
2023-02-07T04:56:27.838Z,78.59
2023-02-07T04:59:30.654Z,78.78
2023-02-07T05:02:34.136Z,78.84
2023-02-07T05:05:39.654Z,79.43
2023-02-07T05:08:42.924Z,78.60
2023-02-07T05:11:46.986Z,79.17
2023-02-07T05:14:51.964Z,79.10
2023-02-07T05:17:54.715Z,79.09
2023-02-07T05:20:57.398Z,79.34
2023-02-07T05:24:00.131Z,79.06
2023-02-07T05:27:04.725Z,79.10
2023-02-07T05:30:09.059Z,78.90
2023-02-07T05:33:12.255Z,79.71
2023-02-07T05:36:17.951Z,79.65
2023-02-07T05:39:20.661Z,80.18
2023-02-07T05:42:27.316Z,79.84
2023-02-07T05:45:32.788Z,79.49
2023-02-07T05:48:35.461Z,79.45
2023-02-07T05:51:40.409Z,80.02
2023-02-07T05:54:43.126Z,79.97
2023-02-07T05:57:47.493Z,80.41
2023-02-07T06:00:50.445Z,80.20
2023-02-07T06:03:53.147Z,80.74
2023-02-07T06:06:55.950Z,80.06
2023-02-07T06:09:58.633Z,80.13
2023-02-07T06:13:05.852Z,80.32
2023-02-07T06:16:09.890Z,80.88
2023-02-07T06:19:15.449Z,80.98
2023-02-07T06:22:26.085Z,80.76
2023-02-07T06:25:28.754Z,80.43
2023-02-07T06:28:32.889Z,80.24
2023-02-07T06:31:35.626Z,80.24
2023-02-07T06:34:38.330Z,80.10
2023-02-07T06:37:41.035Z,80.42
2023-02-07T06:40:44.651Z,80.56
2023-02-07T06:43:51.932Z,80.67
2023-02-07T06:46:54.565Z,81.10
2023-02-07T06:49:57.292Z,81.85
2023-02-07T06:53:02.026Z,81.66
2023-02-07T06:56:05.205Z,81.34
2023-02-07T06:59:11.922Z,81.98
2023-02-07T07:02:15.189Z,81.84
2023-02-07T07:05:24.244Z,81.95
2023-02-07T07:08:30.182Z,81.62
2023-02-07T07:11:32.981Z,81.69
2023-02-07T07:14:57.538Z,81.56
2023-02-07T07:18:00.931Z,81.66
2023-02-07T07:21:03.650Z,81.82
2023-02-07T07:24:08.276Z,81.76
2023-02-07T07:27:10.962Z,81.56
2023-02-07T07:30:15.786Z,81.45
2023-02-07T07:33:18.497Z,81.78
2023-02-07T07:36:21.517Z,81.71
2023-02-07T07:39:24.296Z,81.67
2023-02-07T07:42:27.293Z,81.24
2023-02-07T07:45:31.401Z,81.34
2023-02-07T07:48:34.515Z,80.97
2023-02-07T07:51:37.308Z,81.04
2023-02-07T07:54:40.021Z,80.29
2023-02-07T07:57:42.715Z,80.25
2023-02-07T08:00:47.737Z,80.03
2023-02-07T08:03:51.568Z,79.04
2023-02-07T08:06:54.272Z,78.71
2023-02-07T08:09:57.382Z,78.91
2023-02-07T08:13:00.107Z,78.03
2023-02-07T08:16:08.616Z,77.55
2023-02-07T08:19:11.343Z,76.00
2023-02-07T08:22:18.089Z,76.05
2023-02-07T08:25:21.144Z,77.32
2023-02-07T08:28:28.078Z,77.13
2023-02-07T08:31:35.068Z,77.49
2023-02-07T08:34:42.735Z,77.51
2023-02-07T08:37:48.344Z,77.59
2023-02-07T08:40:56.888Z,77.60
2023-02-07T08:44:04.891Z,77.65
2023-02-07T08:47:08.920Z,77.76
2023-02-07T08:50:12.274Z,77.06
2023-02-07T08:53:14.966Z,76.48
2023-02-07T08:56:17.625Z,76.24
2023-02-07T08:59:20.318Z,76.25
2023-02-07T09:02:24.631Z,76.25
2023-02-07T09:05:27.478Z,73.62
2023-02-07T09:08:30.226Z,74.27
2023-02-07T09:11:33.298Z,73.44
2023-02-07T09:14:36.143Z,74.22
2023-02-07T09:17:40.234Z,73.96
2023-02-07T09:20:45.028Z,72.58
2023-02-07T09:23:49.964Z,73.44
2023-02-07T09:26:53.192Z,72.77
2023-02-07T09:29:56.269Z,73.66
2023-02-07T09:33:02.723Z,73.75
2023-02-07T09:36:06.531Z,71.93
2023-02-07T09:39:09.195Z,69.85
2023-02-07T09:42:24.602Z,71.88
2023-02-07T09:45:32.317Z,69.66
2023-02-07T09:48:49.388Z,67.92
2023-02-07T09:51:54.148Z,68.24
2023-02-07T09:55:00.795Z,69.73
2023-02-07T09:58:10.312Z,69.96
2023-02-07T10:01:16.494Z,68.15
2023-02-07T10:04:30.580Z,68.88
2023-02-07T10:07:34.182Z,68.78
2023-02-07T10:10:42.526Z,69.10
2023-02-07T10:14:17.631Z,67.87
2023-02-07T10:17:39.947Z,68.91
2023-02-07T10:21:00.821Z,67.75
2023-02-07T10:24:47.807Z,68.44
2023-02-07T10:28:05.367Z,67.44
2023-02-07T10:31:28.080Z,65.12
2023-02-07T10:34:36.416Z,65.24
2023-02-07T10:37:50.780Z,66.60
2023-02-07T10:40:57.298Z,67.08
2023-02-07T10:44:14.033Z,67.11
2023-02-07T10:47:20.095Z,66.99
2023-02-07T10:50:29.968Z,66.44
2023-02-07T10:53:55.103Z,64.61
2023-02-07T10:57:02.834Z,65.97
2023-02-07T11:00:23.154Z,64.29
2023-02-07T11:03:26.920Z,63.50
2023-02-07T11:06:32.031Z,63.55
2023-02-07T11:09:37.763Z,62.03
2023-02-07T11:12:47.060Z,61.82
2023-02-07T11:15:56.882Z,63.03
2023-02-07T11:19:01.889Z,61.97
2023-02-07T11:22:18.613Z,62.07
2023-02-07T11:25:29.354Z,59.19
2023-02-07T11:28:33.860Z,60.70
2023-02-07T11:31:38.671Z,60.91
2023-02-07T11:34:47.123Z,61.34
2023-02-07T11:38:02.065Z,58.82
2023-02-07T11:41:23.279Z,55.87
2023-02-07T11:44:29.614Z,54.96
2023-02-07T11:47:33.691Z,55.62
2023-02-07T11:50:39.733Z,55.51
2023-02-07T11:53:47.034Z,55.94
2023-02-07T11:56:53.694Z,56.47
2023-02-07T12:00:06.601Z,54.77
2023-02-07T12:03:24.676Z,54.11
2023-02-07T12:06:45.017Z,56.21
2023-02-07T12:09:50.338Z,54.78
2023-02-07T12:13:00.252Z,54.40
2023-02-07T12:16:08.021Z,53.54
2023-02-07T12:19:23.023Z,53.80
2023-02-07T12:22:32.578Z,49.73
2023-02-07T12:25:42.267Z,50.71
2023-02-07T12:29:12.809Z,49.05
2023-02-07T12:32:33.803Z,49.05
2023-02-07T12:35:57.452Z,50.47
2023-02-07T12:39:07.807Z,51.36
2023-02-07T12:42:26.325Z,51.13
2023-02-07T12:46:03.743Z,51.76
2023-02-07T12:49:23.161Z,50.98
2023-02-07T12:52:49.916Z,48.56
2023-02-07T12:56:05.600Z,49.89
2023-02-07T12:59:15.791Z,49.45
2023-02-07T13:02:41.661Z,48.53
2023-02-07T13:06:09.058Z,47.84
2023-02-07T13:09:17.790Z,47.49
2023-02-07T13:12:25.919Z,48.58
2023-02-07T13:15:38.722Z,48.69
2023-02-07T13:18:49.260Z,49.25
2023-02-07T13:21:57.641Z,48.16
2023-02-07T13:25:02.071Z,49.70
2023-02-07T13:28:09.347Z,49.40
2023-02-07T13:31:19.625Z,49.86
2023-02-07T13:34:28.952Z,49.68
2023-02-07T13:37:44.764Z,49.11
2023-02-07T13:40:56.637Z,48.96
2023-02-07T13:44:09.835Z,48.52
2023-02-07T13:47:38.112Z,48.27
2023-02-07T13:51:02.434Z,49.48
2023-02-07T13:54:19.677Z,48.77
2023-02-07T13:57:58.770Z,49.46
2023-02-07T14:01:11.177Z,48.94
2023-02-07T14:04:21.150Z,48.54
2023-02-07T14:07:29.687Z,48.28
2023-02-07T14:11:13.662Z,48.53
2023-02-07T14:14:26.157Z,50.27
2023-02-07T14:17:58.128Z,49.35
2023-02-07T14:21:02.250Z,48.95
2023-02-07T14:24:20.170Z,49.21
2023-02-07T14:27:32.299Z,49.75
2023-02-07T14:30:38.287Z,49.05
2023-02-07T14:33:41.395Z,49.38
2023-02-07T14:36:44.101Z,47.92
2023-02-07T14:39:49.720Z,48.42
2023-02-07T14:42:58.828Z,47.35
2023-02-07T14:46:10.244Z,47.84
2023-02-07T14:49:19.428Z,47.86
2023-02-07T14:52:24.628Z,48.76
2023-02-07T14:55:35.637Z,48.42
2023-02-07T14:58:43.361Z,49.50
2023-02-07T15:01:46.424Z,49.69
2023-02-07T15:04:52.170Z,50.19
2023-02-07T15:08:09.557Z,50.22
2023-02-07T15:11:14.851Z,50.89
2023-02-07T15:14:23.765Z,51.35
2023-02-07T15:17:39.319Z,51.75
2023-02-07T15:20:50.330Z,51.60
2023-02-07T15:23:58.654Z,51.16
2023-02-07T15:27:05.173Z,51.74
2023-02-07T15:30:11.566Z,52.07
2023-02-07T15:33:20.587Z,52.47
2023-02-07T15:36:32.640Z,52.47
2023-02-07T15:39:35.392Z,52.86
2023-02-07T15:42:50.433Z,53.35
2023-02-07T15:46:05.526Z,53.42
2023-02-07T15:49:09.108Z,52.75
2023-02-07T15:52:17.926Z,52.98
2023-02-07T15:55:28.209Z,53.29
2023-02-07T15:58:35.034Z,53.39
2023-02-07T16:01:39.259Z,53.73
2023-02-07T16:04:42.092Z,53.81
2023-02-07T16:07:48.150Z,54.37
2023-02-07T16:10:51.129Z,55.12
2023-02-07T16:13:56.424Z,55.02
2023-02-07T16:17:00.581Z,55.75
2023-02-07T16:20:03.639Z,55.78
2023-02-07T16:23:09.715Z,55.00
2023-02-07T16:26:13.289Z,55.40
2023-02-07T16:29:21.166Z,55.63
2023-02-07T16:32:33.835Z,55.58
2023-02-07T16:35:36.498Z,56.16
2023-02-07T16:38:39.138Z,56.62
2023-02-07T16:41:46.204Z,56.17
2023-02-07T16:44:50.275Z,55.86
2023-02-07T16:47:52.962Z,55.25
2023-02-07T16:50:55.794Z,55.69
2023-02-07T16:53:58.423Z,56.95
2023-02-07T16:57:03.954Z,57.86
2023-02-07T17:00:10.570Z,58.75
2023-02-07T17:03:15.878Z,59.58
2023-02-07T17:06:21.802Z,60.22
2023-02-07T17:09:26.636Z,60.39
2023-02-07T17:12:29.309Z,61.18
2023-02-07T17:15:33.769Z,61.55
2023-02-07T17:18:36.465Z,61.96
2023-02-07T17:21:39.191Z,62.32
2023-02-07T17:24:49.082Z,63.42
2023-02-07T17:27:56.967Z,64.09
2023-02-07T17:31:01.027Z,64.17
2023-02-07T17:34:04.331Z,64.68
2023-02-07T17:37:07.054Z,64.89
2023-02-07T17:40:24.330Z,64.98
2023-02-07T17:43:27.022Z,65.48
2023-02-07T17:46:31.118Z,65.59
2023-02-07T17:49:33.817Z,65.77
2023-02-07T17:52:36.466Z,66.13
2023-02-07T17:55:39.672Z,66.33
2023-02-07T17:58:42.347Z,66.95
2023-02-07T18:01:46.898Z,67.10
2023-02-07T18:04:51.610Z,66.80
2023-02-07T18:07:54.673Z,67.01
2023-02-07T18:11:02.069Z,67.22
2023-02-07T18:14:04.812Z,67.71
2023-02-07T18:17:08.785Z,67.78
2023-02-07T18:20:14.496Z,67.81
2023-02-07T18:23:17.211Z,67.93
2023-02-07T18:26:20.435Z,68.15
2023-02-07T18:29:23.184Z,68.60
2023-02-07T18:32:27.335Z,68.54
2023-02-07T18:35:30.131Z,68.78
2023-02-07T18:38:32.959Z,69.16
2023-02-07T18:41:35.635Z,69.38
2023-02-07T18:44:38.437Z,69.33
2023-02-07T18:47:45.131Z,69.72
2023-02-07T18:50:48.149Z,69.93
2023-02-07T18:53:51.775Z,69.81
2023-02-07T18:56:54.580Z,69.92
2023-02-07T18:59:57.267Z,70.29
2023-02-07T19:03:02.142Z,70.49
2023-02-07T19:06:06.621Z,70.60
2023-02-07T19:09:09.621Z,70.81
2023-02-07T19:12:12.343Z,70.77
2023-02-07T19:15:22.528Z,70.81
2023-02-07T19:18:26.528Z,71.22
2023-02-07T19:21:29.221Z,71.42
2023-02-07T19:24:33.135Z,71.62
2023-02-07T19:27:35.839Z,71.67
2023-02-07T19:30:41.058Z,71.81
2023-02-07T19:33:53.411Z,72.00
2023-02-07T19:36:56.663Z,72.12
2023-02-07T19:40:02.298Z,72.41
2023-02-07T19:43:04.961Z,72.85
2023-02-07T19:46:07.625Z,72.99
2023-02-07T19:49:12.607Z,73.15
2023-02-07T19:52:17.661Z,73.43
2023-02-07T19:55:20.437Z,73.50
2023-02-07T19:58:23.426Z,73.71
2023-02-07T20:01:27.397Z,73.95
2023-02-07T20:04:31.452Z,73.87
2023-02-07T20:07:34.200Z,74.14
2023-02-07T20:10:42.944Z,74.13
2023-02-07T20:13:48.148Z,74.18
2023-02-07T20:16:51.001Z,74.62
2023-02-07T20:19:55.049Z,75.10
2023-02-07T20:22:57.775Z,75.13
2023-02-07T20:26:04.455Z,75.10
2023-02-07T20:29:09.686Z,75.09
2023-02-07T20:32:14.815Z,75.16
2023-02-07T20:35:18.794Z,75.11
2023-02-07T20:38:21.454Z,75.45
2023-02-07T20:41:41.115Z,75.46
2023-02-07T20:44:43.747Z,75.71
2023-02-07T20:47:46.482Z,75.71
2023-02-07T20:50:57.670Z,75.54
2023-02-07T20:54:03.120Z,76.02
2023-02-07T20:57:05.826Z,75.97
2023-02-07T21:00:09.957Z,76.28
2023-02-07T21:03:12.667Z,76.18
2023-02-07T21:06:17.750Z,76.29
2023-02-07T21:09:20.652Z,76.36
2023-02-07T21:12:23.559Z,76.49
2023-02-07T21:15:26.228Z,76.43
2023-02-07T21:18:29.544Z,76.78
2023-02-07T21:21:33.607Z,76.69
2023-02-07T21:24:36.492Z,76.74
2023-02-07T21:27:39.328Z,76.63
2023-02-07T21:30:42.446Z,76.81
2023-02-07T21:33:45.368Z,77.08
2023-02-07T21:36:50.756Z,77.18
2023-02-07T21:39:53.414Z,77.36
2023-02-07T21:42:56.340Z,77.40
2023-02-07T21:46:04.345Z,77.31
2023-02-07T21:49:09.106Z,77.48
2023-02-07T21:52:13.248Z,77.44
2023-02-07T21:55:16.133Z,77.52
2023-02-07T21:58:18.808Z,77.92
2023-02-07T22:01:23.379Z,77.73
2023-02-07T22:04:26.100Z,77.72
2023-02-07T22:07:30.150Z,78.02
2023-02-07T22:10:32.816Z,78.08
2023-02-07T22:13:37.617Z,78.28
2023-02-07T22:16:41.095Z,78.36
2023-02-07T22:19:43.847Z,78.38
2023-02-07T22:23:07.313Z,78.65
2023-02-07T22:26:10.211Z,78.60
2023-02-07T22:29:13.315Z,78.72
2023-02-07T22:32:16.229Z,79.02
2023-02-07T22:35:18.875Z,79.16
2023-02-07T22:38:23.005Z,78.88
2023-02-07T22:41:25.687Z,79.13
2023-02-07T22:44:28.454Z,79.23
2023-02-07T22:47:31.120Z,79.26
2023-02-07T22:50:33.976Z,79.33
2023-02-07T22:53:40.004Z,79.35
2023-02-07T22:56:46.187Z,79.38
2023-02-07T23:00:03.014Z,79.38
2023-02-07T23:03:05.771Z,79.54
2023-02-07T23:06:08.855Z,79.58
2023-02-07T23:09:13.082Z,79.84
2023-02-07T23:12:16.026Z,79.84
2023-02-07T23:15:18.740Z,79.57
2023-02-07T23:18:21.437Z,79.88
2023-02-07T23:21:25.714Z,79.79
2023-02-07T23:24:29.896Z,79.96
2023-02-07T23:27:32.631Z,80.11
2023-02-07T23:30:36.191Z,80.25
2023-02-07T23:33:41.864Z,80.10
2023-02-07T23:36:49.024Z,80.31
2023-02-07T23:39:53.045Z,80.43
2023-02-07T23:42:56.630Z,80.55
2023-02-07T23:45:59.315Z,80.59
2023-02-07T23:49:02.376Z,80.64
2023-02-07T23:52:05.414Z,80.36
2023-02-07T23:55:09.547Z,80.36
2023-02-07T23:58:12.268Z,80.44
